createdAt,value
2022-12-09T00:02:29.366Z,9.13
2022-12-09T00:05:15.342Z,6.73
2022-12-09T00:08:01.315Z,2.53
2022-12-09T00:10:47.405Z,0.97
2022-12-09T00:13:33.596Z,0.40
2022-12-09T00:16:19.771Z,3.40
2022-12-09T00:19:07.404Z,1.23
2022-12-09T00:21:53.405Z,4.07
2022-12-09T00:24:39.534Z,0.63
2022-12-09T00:27:26.762Z,6.87
2022-12-09T00:30:13.118Z,6.30
2022-12-09T00:32:58.871Z,4.43
2022-12-09T00:35:44.985Z,7.83
2022-12-09T00:38:30.821Z,3.60
2022-12-09T00:41:17.582Z,8.13
2022-12-09T00:44:05.545Z,3.77
2022-12-09T00:46:51.618Z,3.27
2022-12-09T00:49:37.641Z,1.20
2022-12-09T00:52:23.825Z,6.30
2022-12-09T00:55:10.052Z,4.50
2022-12-09T00:57:55.945Z,4.70
2022-12-09T01:00:42.664Z,4.80
2022-12-09T01:03:28.804Z,3.43
2022-12-09T01:06:20.648Z,7.07
2022-12-09T01:09:06.650Z,6.50
2022-12-09T01:11:52.623Z,2.73
2022-12-09T01:14:38.617Z,8.13
2022-12-09T01:17:24.585Z,5.77
2022-12-09T01:20:11.222Z,8.00
2022-12-09T01:22:57.346Z,4.43
2022-12-09T01:25:44.493Z,9.33
2022-12-09T01:28:31.185Z,4.23
2022-12-09T01:31:20.217Z,5.10
2022-12-09T01:34:06.415Z,5.13
2022-12-09T01:36:52.273Z,3.40
2022-12-09T01:39:38.521Z,1.13
2022-12-09T01:42:25.739Z,4.07
2022-12-09T01:45:23.903Z,12.30
2022-12-09T01:48:15.191Z,7.33
2022-12-09T01:51:04.711Z,6.70
2022-12-09T01:53:51.857Z,10.50
2022-12-09T01:56:39.767Z,8.90
2022-12-09T01:59:29.213Z,4.70
2022-12-09T02:02:20.891Z,3.73
2022-12-09T02:05:08.107Z,11.97
2022-12-09T02:07:55.231Z,7.57
2022-12-09T02:11:05.021Z,13.03
2022-12-09T02:14:09.723Z,8.17
2022-12-09T02:17:14.816Z,8.70
2022-12-09T02:20:10.947Z,7.50
2022-12-09T02:23:04.506Z,8.50
2022-12-09T02:26:00.167Z,7.63
2022-12-09T02:29:31.203Z,8.53
2022-12-09T02:32:20.125Z,8.73
2022-12-09T02:35:20.128Z,2.53
2022-12-09T02:38:17.110Z,8.27
2022-12-09T02:41:12.762Z,3.37
2022-12-09T02:44:16.048Z,2.47
2022-12-09T02:47:05.506Z,2.23
2022-12-09T02:49:56.793Z,8.53
2022-12-09T02:52:43.921Z,3.67
2022-12-09T02:55:32.655Z,5.20
2022-12-09T02:58:19.491Z,5.67
2022-12-09T03:01:06.587Z,9.40
2022-12-09T03:03:55.668Z,6.00
2022-12-09T03:06:50.989Z,9.97
2022-12-09T03:09:44.677Z,7.60
2022-12-09T03:12:34.256Z,12.17
2022-12-09T03:15:25.798Z,8.47
2022-12-09T03:18:17.185Z,10.83
2022-12-09T03:21:05.457Z,12.23
2022-12-09T03:23:54.935Z,13.10
2022-12-09T03:26:42.607Z,13.17
2022-12-09T03:29:32.499Z,11.00
2022-12-09T03:32:21.649Z,10.17
2022-12-09T03:35:26.654Z,10.40
2022-12-09T03:38:17.193Z,13.73
2022-12-09T03:41:20.818Z,15.17
2022-12-09T03:44:20.064Z,5.97
2022-12-09T03:47:09.198Z,5.03
2022-12-09T03:49:55.961Z,17.67
2022-12-09T03:53:05.284Z,14.80
2022-12-09T03:56:03.888Z,9.53
2022-12-09T03:58:54.433Z,6.87
2022-12-09T04:01:45.471Z,6.53
2022-12-09T04:04:34.796Z,3.33
2022-12-09T04:07:21.053Z,6.23
2022-12-09T04:10:08.510Z,9.53
2022-12-09T04:12:54.492Z,9.03
2022-12-09T04:15:40.645Z,15.83
2022-12-09T04:18:27.243Z,7.43
2022-12-09T04:21:14.545Z,6.33
2022-12-09T04:24:00.919Z,1.90
2022-12-09T04:26:47.409Z,9.20
2022-12-09T04:29:34.398Z,9.73
2022-12-09T04:32:21.047Z,1.00
2022-12-09T04:35:07.503Z,0.73
2022-12-09T04:37:53.415Z,3.87
2022-12-09T04:40:39.655Z,6.03
2022-12-09T04:43:25.666Z,6.80
2022-12-09T04:46:14.743Z,5.70
2022-12-09T04:49:00.724Z,4.20
2022-12-09T04:51:46.591Z,9.23
2022-12-09T04:54:33.169Z,3.83
2022-12-09T04:57:19.658Z,12.57
2022-12-09T05:00:07.551Z,3.80
2022-12-09T05:02:54.046Z,2.20
2022-12-09T05:05:41.093Z,4.07
2022-12-09T05:08:31.485Z,5.27
2022-12-09T05:11:19.890Z,3.27
2022-12-09T05:14:06.202Z,11.20
2022-12-09T05:16:52.396Z,9.33
2022-12-09T05:19:39.378Z,5.03
2022-12-09T05:22:25.556Z,4.77
2022-12-09T05:25:11.596Z,6.47
2022-12-09T05:27:57.955Z,3.47
2022-12-09T05:30:44.419Z,3.90
2022-12-09T05:33:31.265Z,7.57
2022-12-09T05:36:21.833Z,7.60
2022-12-09T05:39:07.888Z,4.13
2022-12-09T05:41:54.386Z,4.53
2022-12-09T05:44:41.690Z,12.33
2022-12-09T05:47:27.958Z,9.67
2022-12-09T05:50:15.108Z,7.13
2022-12-09T05:53:01.505Z,11.03
2022-12-09T05:55:47.292Z,8.97
2022-12-09T05:58:36.247Z,4.23
2022-12-09T06:01:23.521Z,2.93
2022-12-09T06:04:09.498Z,4.83
2022-12-09T06:06:55.953Z,7.40
2022-12-09T06:09:45.071Z,4.00
2022-12-09T06:12:31.089Z,2.53
2022-12-09T06:15:21.410Z,1.40
2022-12-09T06:18:08.140Z,6.13
2022-12-09T06:20:54.634Z,6.90
2022-12-09T06:23:42.463Z,3.63
2022-12-09T06:26:33.147Z,13.63
2022-12-09T06:29:19.046Z,4.83
2022-12-09T06:32:05.455Z,6.57
2022-12-09T06:34:52.970Z,3.63
2022-12-09T06:37:39.143Z,11.27
2022-12-09T06:40:24.863Z,2.73
2022-12-09T06:43:11.715Z,3.40
2022-12-09T06:45:58.908Z,1.87
2022-12-09T06:48:46.321Z,5.90
2022-12-09T06:51:32.634Z,4.50
2022-12-09T06:54:18.653Z,2.00
2022-12-09T06:57:05.576Z,6.87
2022-12-09T06:59:51.903Z,8.17
2022-12-09T07:02:38.264Z,8.77
2022-12-09T07:05:25.406Z,6.30
2022-12-09T07:08:11.813Z,8.50
2022-12-09T07:10:58.007Z,9.20
2022-12-09T07:13:44.365Z,8.80
2022-12-09T07:16:30.546Z,2.13
2022-12-09T07:19:22.993Z,8.33
2022-12-09T07:22:08.694Z,0.83
2022-12-09T07:24:54.923Z,4.40
2022-12-09T07:27:41.150Z,2.42
2022-12-09T07:30:28.635Z,2.73
2022-12-09T07:33:14.578Z,2.10
2022-12-09T07:36:00.470Z,0.70
2022-12-09T07:38:46.918Z,0.67
2022-12-09T07:41:33.221Z,0.73
2022-12-09T07:44:19.356Z,4.33
2022-12-09T07:47:05.487Z,0.10
2022-12-09T07:49:51.447Z,2.57
2022-12-09T07:52:37.153Z,3.47
2022-12-09T07:55:22.999Z,1.02
2022-12-09T07:58:11.284Z,1.30
2022-12-09T08:00:57.347Z,2.60
2022-12-09T08:03:45.130Z,1.13
2022-12-09T08:06:32.038Z,2.40
2022-12-09T08:09:18.498Z,3.13
2022-12-09T08:12:04.699Z,3.40
2022-12-09T08:14:51.275Z,1.57
2022-12-09T08:17:37.420Z,1.17
2022-12-09T08:20:28.838Z,2.72
2022-12-09T08:23:15.259Z,1.43
2022-12-09T08:26:01.919Z,3.37
2022-12-09T08:28:48.767Z,0.60
2022-12-09T08:31:40.920Z,1.95
2022-12-09T08:34:27.810Z,1.63
2022-12-09T08:37:13.940Z,4.70
2022-12-09T08:40:00.887Z,0.77
2022-12-09T08:42:46.461Z,1.40
2022-12-09T08:45:37.180Z,0.87
2022-12-09T08:48:23.256Z,0.33
2022-12-09T08:51:11.588Z,0.87
2022-12-09T08:54:00.698Z,2.10
2022-12-09T08:56:49.336Z,1.67
2022-12-09T08:59:40.002Z,0.93
2022-12-09T09:02:29.316Z,1.50
2022-12-09T09:05:16.540Z,0.53
2022-12-09T09:08:02.697Z,2.43
2022-12-09T09:10:49.060Z,0.20
2022-12-09T09:13:35.372Z,0.40
2022-12-09T09:16:27.617Z,2.33
2022-12-09T09:19:20.664Z,1.10
2022-12-09T09:22:06.806Z,0.87
2022-12-09T09:24:54.244Z,1.00
2022-12-09T09:27:40.300Z,2.50
2022-12-09T09:30:26.299Z,2.83
2022-12-09T09:33:12.246Z,5.00
2022-12-09T09:36:02.778Z,3.20
2022-12-09T09:38:55.266Z,4.70
2022-12-09T09:42:08.277Z,4.10
2022-12-09T09:44:56.304Z,1.43
2022-12-09T09:47:47.159Z,1.03
2022-12-09T09:50:44.500Z,0.93
2022-12-09T09:53:34.858Z,1.10
2022-12-09T09:56:30.780Z,1.13
2022-12-09T09:59:27.305Z,4.37
2022-12-09T10:02:18.284Z,0.10
2022-12-09T10:05:14.481Z,1.83
2022-12-09T10:08:07.132Z,6.53
2022-12-09T10:11:22.204Z,0.70
2022-12-09T10:14:44.485Z,1.13
2022-12-09T10:17:47.909Z,0.43
2022-12-09T10:20:34.239Z,1.37
2022-12-09T10:23:23.459Z,0.53
2022-12-09T10:26:24.901Z,1.37
2022-12-09T10:29:32.282Z,0.77
2022-12-09T10:32:21.272Z,0.87
2022-12-09T10:35:28.981Z,2.20
2022-12-09T10:38:17.720Z,0.70
2022-12-09T10:41:16.614Z,0.50
2022-12-09T10:44:21.795Z,3.47
2022-12-09T10:47:26.100Z,0.50
2022-12-09T10:50:29.119Z,1.07
2022-12-09T10:53:16.615Z,1.20
2022-12-09T10:56:04.191Z,1.30
2022-12-09T10:58:50.215Z,1.10
2022-12-09T11:01:53.703Z,1.48
2022-12-09T11:04:42.926Z,1.40
2022-12-09T11:07:29.826Z,0.37
2022-12-09T11:10:22.588Z,11.03
2022-12-09T11:13:17.633Z,2.83
2022-12-09T11:16:04.955Z,1.20
2022-12-09T11:18:53.019Z,1.33
2022-12-09T11:21:38.995Z,0.73
2022-12-09T11:24:26.935Z,1.10
2022-12-09T11:27:34.899Z,2.83
2022-12-09T11:30:24.865Z,4.70
2022-12-09T11:33:14.304Z,0.50
2022-12-09T11:36:11.074Z,6.77
2022-12-09T11:39:08.962Z,0.57
2022-12-09T11:42:17.630Z,0.97
2022-12-09T11:45:28.679Z,1.07
2022-12-09T11:48:35.019Z,0.80
2022-12-09T11:51:38.550Z,2.28
2022-12-09T11:54:49.091Z,0.30
2022-12-09T11:57:37.110Z,3.08
2022-12-09T12:00:27.266Z,0.60
2022-12-09T12:03:39.859Z,0.30
2022-12-09T12:06:36.145Z,0.30
2022-12-09T12:09:40.340Z,0.50
2022-12-09T12:13:12.492Z,2.38
2022-12-09T12:16:06.032Z,0.55
2022-12-09T12:19:01.972Z,0.70
2022-12-09T12:22:25.012Z,0.20
2022-12-09T12:25:44.144Z,2.70
2022-12-09T12:29:07.122Z,0.10
2022-12-09T12:32:19.198Z,1.30
2022-12-09T12:35:30.697Z,2.87
2022-12-09T12:38:42.772Z,1.00
2022-12-09T12:41:48.584Z,4.97
2022-12-09T12:45:19.224Z,2.30
2022-12-09T12:48:17.339Z,2.17
2022-12-09T12:51:16.907Z,1.03
2022-12-09T12:54:23.670Z,3.93
2022-12-09T12:57:18.436Z,2.80
2022-12-09T13:00:19.525Z,2.63
2022-12-09T13:03:27.405Z,1.50
2022-12-09T13:06:17.948Z,3.93
2022-12-09T13:09:11.692Z,2.50
2022-12-09T13:12:19.276Z,2.40
2022-12-09T13:15:07.442Z,3.50
2022-12-09T13:17:55.125Z,2.03
2022-12-09T13:20:52.092Z,2.80
2022-12-09T13:24:03.452Z,2.30
2022-12-09T13:27:02.432Z,1.03
2022-12-09T13:30:04.174Z,4.70
2022-12-09T13:33:10.570Z,1.37
2022-12-09T13:36:06.955Z,2.57
2022-12-09T13:38:52.833Z,2.83
2022-12-09T13:42:00.192Z,0.73
2022-12-09T13:44:49.056Z,0.93
2022-12-09T13:47:36.650Z,0.40
2022-12-09T13:50:42.613Z,1.40
2022-12-09T13:53:33.804Z,1.33
2022-12-09T13:56:27.783Z,1.07
2022-12-09T13:59:40.123Z,4.53
2022-12-09T14:02:32.187Z,4.30
2022-12-09T14:05:28.513Z,2.10
2022-12-09T14:08:24.939Z,3.10
2022-12-09T14:11:41.722Z,0.67
2022-12-09T14:14:27.653Z,2.30
2022-12-09T14:17:25.177Z,0.70
2022-12-09T14:20:17.135Z,1.03
2022-12-09T14:23:04.895Z,1.20
2022-12-09T14:25:59.836Z,1.30
2022-12-09T14:28:56.143Z,1.87
2022-12-09T14:31:50.249Z,3.97
2022-12-09T14:34:39.172Z,1.37
2022-12-09T14:37:33.803Z,0.87
2022-12-09T14:40:50.875Z,0.37
2022-12-09T14:43:57.624Z,2.10
2022-12-09T14:46:46.426Z,1.87
2022-12-09T14:49:37.813Z,0.47
2022-12-09T14:52:33.251Z,0.80
2022-12-09T14:55:23.117Z,2.40
2022-12-09T14:58:20.168Z,2.23
2022-12-09T15:01:06.845Z,0.97
2022-12-09T15:03:55.430Z,0.30
2022-12-09T15:06:42.653Z,0.83
2022-12-09T15:09:29.006Z,2.83
2022-12-09T15:12:14.998Z,2.03
2022-12-09T15:15:10.645Z,0.80
2022-12-09T15:18:01.417Z,1.47
2022-12-09T15:20:57.144Z,0.50
2022-12-09T15:23:44.966Z,1.03
2022-12-09T15:26:34.242Z,1.93
2022-12-09T15:29:21.671Z,3.87
2022-12-09T15:32:20.726Z,5.07
2022-12-09T15:35:19.930Z,3.03
2022-12-09T15:38:08.594Z,3.10
2022-12-09T15:41:16.667Z,1.80
2022-12-09T15:44:08.199Z,0.57
2022-12-09T15:46:57.229Z,2.07
2022-12-09T15:49:52.002Z,2.43
2022-12-09T15:52:52.196Z,2.47
2022-12-09T15:55:43.783Z,0.10
2022-12-09T15:58:34.234Z,1.80
2022-12-09T16:01:42.018Z,2.67
2022-12-09T16:04:36.456Z,1.57
2022-12-09T16:07:25.231Z,1.33
2022-12-09T16:10:15.225Z,0.30
2022-12-09T16:13:07.413Z,0.97
2022-12-09T16:15:56.025Z,1.40
2022-12-09T16:18:52.162Z,1.73
2022-12-09T16:21:38.287Z,0.47
2022-12-09T16:24:25.083Z,2.93
2022-12-09T16:27:18.502Z,1.30
2022-12-09T16:30:14.046Z,3.93
2022-12-09T16:33:04.927Z,0.43
2022-12-09T16:36:06.167Z,1.93
2022-12-09T16:39:23.926Z,1.50
2022-12-09T16:42:27.321Z,0.50
2022-12-09T16:45:29.140Z,1.93
2022-12-09T16:48:17.094Z,0.30
2022-12-09T16:51:19.598Z,1.03
2022-12-09T16:54:19.692Z,1.93
2022-12-09T16:57:08.318Z,1.40
2022-12-09T16:59:54.001Z,0.20
2022-12-09T17:02:42.995Z,4.00
2022-12-09T17:05:28.253Z,1.50
2022-12-09T17:08:14.339Z,5.40
2022-12-09T17:11:00.739Z,1.23
2022-12-09T17:13:46.655Z,0.17
2022-12-09T17:16:33.867Z,2.43
2022-12-09T17:19:23.554Z,5.97
2022-12-09T17:22:09.313Z,3.87
2022-12-09T17:24:55.103Z,1.13
2022-12-09T17:27:40.711Z,2.93
2022-12-09T17:30:26.302Z,2.27
2022-12-09T17:33:12.610Z,5.10
2022-12-09T17:35:59.411Z,3.03
2022-12-09T17:38:45.992Z,3.73
2022-12-09T17:41:32.033Z,0.97
2022-12-09T17:44:21.365Z,1.60
2022-12-09T17:47:07.094Z,1.37
2022-12-09T17:49:53.109Z,0.83
2022-12-09T17:52:40.071Z,0.60
2022-12-09T17:55:25.704Z,0.37
2022-12-09T17:58:11.573Z,1.60
2022-12-09T18:00:57.278Z,3.50
2022-12-09T18:04:01.624Z,0.97
2022-12-09T18:06:48.865Z,5.70
2022-12-09T18:09:34.962Z,7.63
2022-12-09T18:12:20.865Z,1.33
2022-12-09T18:15:06.962Z,1.87
2022-12-09T18:17:52.833Z,1.03
2022-12-09T18:20:39.122Z,5.30
2022-12-09T18:23:24.636Z,1.67
2022-12-09T18:26:13.638Z,1.60
2022-12-09T18:28:59.254Z,0.60
2022-12-09T18:31:45.902Z,1.07
2022-12-09T18:34:33.001Z,2.07
2022-12-09T18:37:19.758Z,2.03
2022-12-09T18:40:06.243Z,2.77
2022-12-09T18:42:52.486Z,2.20
2022-12-09T18:45:38.329Z,1.40
2022-12-09T18:48:23.851Z,1.37
2022-12-09T18:51:18.078Z,1.80
2022-12-09T18:54:04.854Z,3.13
2022-12-09T18:56:51.594Z,2.97
2022-12-09T18:59:37.431Z,1.53
2022-12-09T19:02:24.145Z,4.53
2022-12-09T19:05:10.096Z,1.30
2022-12-09T19:07:55.732Z,1.80
2022-12-09T19:10:41.631Z,1.93
2022-12-09T19:13:27.605Z,0.80
2022-12-09T19:16:15.731Z,1.50
2022-12-09T19:19:08.775Z,2.03
2022-12-09T19:21:55.326Z,0.93
2022-12-09T19:24:43.314Z,1.03
2022-12-09T19:27:29.067Z,0.37
2022-12-09T19:30:14.768Z,1.20
2022-12-09T19:33:00.656Z,2.87
2022-12-09T19:35:46.434Z,3.30
2022-12-09T19:38:32.471Z,0.70
2022-12-09T19:41:18.645Z,1.83
2022-12-09T19:44:05.194Z,0.73
2022-12-09T19:46:51.007Z,1.60
2022-12-09T19:49:37.685Z,0.73
2022-12-09T19:52:23.222Z,3.47
2022-12-09T19:55:09.344Z,0.20
2022-12-09T19:57:55.067Z,0.10
2022-12-09T20:00:41.788Z,0.10
2022-12-09T20:03:28.007Z,0.50
2022-12-09T20:06:16.142Z,1.03
2022-12-09T20:09:02.661Z,0.83
2022-12-09T20:11:48.620Z,1.33
2022-12-09T20:14:34.249Z,1.07
2022-12-09T20:17:20.335Z,1.03
2022-12-09T20:20:07.263Z,0.87
2022-12-09T20:22:53.428Z,1.30
2022-12-09T20:25:39.971Z,0.40
2022-12-09T20:28:25.802Z,0.93
2022-12-09T20:31:20.825Z,0.50
2022-12-09T20:34:13.009Z,2.87
2022-12-09T20:36:59.074Z,0.27
2022-12-09T20:39:45.040Z,2.73
2022-12-09T20:42:30.624Z,2.37
2022-12-09T20:45:16.643Z,1.43
2022-12-09T20:48:02.707Z,2.77
2022-12-09T20:50:49.132Z,1.63
2022-12-09T20:53:36.311Z,1.80
2022-12-09T20:56:23.960Z,1.13
2022-12-09T20:59:13.631Z,2.07
2022-12-09T21:02:00.088Z,0.83
2022-12-09T21:04:46.556Z,0.43
2022-12-09T21:07:32.531Z,2.33
2022-12-09T21:10:18.442Z,4.53
2022-12-09T21:13:04.616Z,3.77
2022-12-09T21:15:50.635Z,0.10
2022-12-09T21:18:37.145Z,1.40
2022-12-09T21:21:25.121Z,6.67
2022-12-09T21:24:11.988Z,3.57
2022-12-09T21:26:57.832Z,3.33
2022-12-09T21:29:43.643Z,5.22
2022-12-09T21:32:31.041Z,3.00
2022-12-09T21:35:16.938Z,3.90
2022-12-09T21:38:02.903Z,4.27
2022-12-09T21:40:48.695Z,2.23
2022-12-09T21:43:35.926Z,2.33
2022-12-09T21:46:24.969Z,0.27
2022-12-09T21:49:11.764Z,7.87
2022-12-09T21:51:57.709Z,3.03
2022-12-09T21:54:43.653Z,1.90
2022-12-09T21:57:29.566Z,3.13
2022-12-09T22:00:15.692Z,1.83
2022-12-09T22:03:01.584Z,4.83
2022-12-09T22:05:46.955Z,1.70
2022-12-09T22:08:32.692Z,4.33
2022-12-09T22:11:22.799Z,2.40
2022-12-09T22:14:10.626Z,3.80
2022-12-09T22:16:56.427Z,2.07
2022-12-09T22:19:43.601Z,1.73
2022-12-09T22:22:29.604Z,1.07
2022-12-09T22:25:15.349Z,4.80
2022-12-09T22:28:01.582Z,3.43
2022-12-09T22:30:47.040Z,0.40
2022-12-09T22:33:32.719Z,0.97
2022-12-09T22:36:19.272Z,2.77
2022-12-09T22:39:06.953Z,1.17
2022-12-09T22:41:52.593Z,5.60
2022-12-09T22:44:39.232Z,1.23
2022-12-09T22:47:25.601Z,0.63
2022-12-09T22:50:11.589Z,2.33
2022-12-09T22:52:57.321Z,3.53
2022-12-09T22:55:47.700Z,0.43
2022-12-09T22:58:34.621Z,1.60
2022-12-09T23:01:32.807Z,1.57
2022-12-09T23:04:21.837Z,0.10
2022-12-09T23:07:08.045Z,1.90
2022-12-09T23:09:54.260Z,0.50
2022-12-09T23:12:40.090Z,3.27
2022-12-09T23:15:25.960Z,1.57
2022-12-09T23:18:11.713Z,1.53
2022-12-09T23:21:06.594Z,0.17
2022-12-09T23:23:54.745Z,1.00
2022-12-09T23:26:42.496Z,1.23
2022-12-09T23:29:28.586Z,0.40
2022-12-09T23:32:14.395Z,2.73
2022-12-09T23:35:04.375Z,1.20
2022-12-09T23:37:53.211Z,0.63
2022-12-09T23:40:39.289Z,1.23
2022-12-09T23:43:25.127Z,0.43
2022-12-09T23:46:15.667Z,0.83
2022-12-09T23:49:01.938Z,0.50
2022-12-09T23:51:48.013Z,1.93
2022-12-09T23:54:33.805Z,0.90
2022-12-09T23:57:19.873Z,0.60
